Observation data for Ralls on 05/25/2019      Previous  Date  Next       Current Mesonet Observations  Soil Data  Daily Summary Page  Observations in Plain Language
KRLS 250500Z 10004KT 17/15 A3001 RMK A01 T01740147  RH  088%=      5-min Rain = 0
KRLS 250505Z 09004KT 18/15 A3001 RMK A01 T01750148  RH  088%=      5-min Rain = 0
KRLS 250510Z 07004KT 17/15 A3001 RMK A01 T01740148  RH  089%=      5-min Rain = 0
KRLS 250515Z 06005KT 17/15 A3001 RMK A01 T01720147  RH  089%=      5-min Rain = 0
KRLS 250520Z 05005KT 17/15 A3001 RMK A01 T01710147  RH  090%=      5-min Rain = 0
KRLS 250525Z 06005KT 17/15 A3001 RMK A01 T01710148  RH  090%=      5-min Rain = 0
KRLS 250530Z 07005KT 17/15 A30 RMK A01 T01700148  RH  090%=      5-min Rain = 0
KRLS 250535Z 07006KT 17/15 A30 RMK A01 T01720150  RH  091%=      5-min Rain = 0
KRLS 250540Z 08007KT 17/15 A30 RMK A01 T01720151  RH  091%=      5-min Rain = 0
KRLS 250545Z 08008KT 17/15 A30 RMK A01 T01720151  RH  091%=      5-min Rain = 0
KRLS 250550Z 09009KT 17/15 A30 RMK A01 T01720151  RH  091%=      5-min Rain = 0
KRLS 250555Z 10010KT 17/15 A2999 RMK A01 T01720151  RH  092%=      5-min Rain = 0
KRLS 250600Z 10011KT 17/15 A2999 RMK A01 T01730152  RH  092%=      5-min Rain = 0
KRLS 250605Z 10011KT 17/15 A2999 RMK A01 T01740153  RH  091%=      5-min Rain = 0
KRLS 250610Z 10012KT 18/15 A2999 RMK A01 T01750153  RH  091%=      5-min Rain = 0
KRLS 250615Z 10011KT 18/15 A2999 RMK A01 T01750153  RH  091%=      5-min Rain = 0
KRLS 250620Z 10011KT 18/15 A2999 RMK A01 T01750153  RH  091%=      5-min Rain = 0
KRLS 250625Z 10012KT 18/15 A2999 RMK A01 T01750154  RH  091%=      5-min Rain = 0
KRLS 250630Z 10011KT 18/15 A2999 RMK A01 T01760154  RH  091%=      5-min Rain = 0
KRLS 250635Z 10011KT 18/16 A2999 RMK A01 T01760155  RH  092%=      5-min Rain = 0
KRLS 250640Z 10010KT 18/16 A2999 RMK A01 T01760155  RH  092%=      5-min Rain = 0
KRLS 250645Z 10011KT 18/16 A2998 RMK A01 T01760156  RH  092%=      5-min Rain = 0
KRLS 250650Z 10010KT 18/16 A2998 RMK A01 T01760157  RH  092%=      5-min Rain = 0
KRLS 250655Z 10012KT 18/16 A2998 RMK A01 T01760157  RH  093%=      5-min Rain = 0
KRLS 250700Z 11012KT 18/16 A2998 RMK A01 T01760157  RH  093%=      5-min Rain = 0
KRLS 250705Z 11013KT 18/16 A2998 RMK A01 T01760158  RH  093%=      5-min Rain = 0
KRLS 250710Z 11013KT 18/16 A2998 RMK A01 T01760158  RH  094%=      5-min Rain = 0
KRLS 250715Z 11012KT 18/16 A2997 RMK A01 T01750158  RH  094%=      5-min Rain = 0
KRLS 250720Z 11012KT 18/16 A2998 RMK A01 T01750159  RH  094%=      5-min Rain = 0
KRLS 250725Z 12011KT 18/16 A2998 RMK A01 T01760159  RH  094%=      5-min Rain = 0
KRLS 250730Z 12011KT 18/16 A2998 RMK A01 T01760160  RH  095%=      5-min Rain = 0
KRLS 250735Z 11010KT 18/16 A2998 RMK A01 T01760160  RH  095%=      5-min Rain = 0
KRLS 250740Z 11010KT 18/16 A2998 RMK A01 T01760160  RH  095%=      5-min Rain = 0
KRLS 250745Z 11010KT 18/16 A2998 RMK A01 T01760161  RH  095%=      5-min Rain = 0
KRLS 250750Z 12011KT 18/16 A2997 RMK A01 T01770162  RH  095%=      5-min Rain = 0
KRLS 250755Z 12011KT 18/16 A2997 RMK A01 T01770162  RH  095%=      5-min Rain = 0
KRLS 250800Z 12011KT 18/16 A2997 RMK A01 T01770162  RH  096%=      5-min Rain = 0
KRLS 250805Z 12011KT 18/16 A2997 RMK A01 T01770163  RH  096%=      5-min Rain = 0
KRLS 250810Z 12012KT 18/16 A2997 RMK A01 T01770163  RH  096%=      5-min Rain = 0
KRLS 250815Z 12012KT 18/16 A2997 RMK A01 T01770163  RH  096%=      5-min Rain = 0
KRLS 250820Z 12012KT 18/16 A2997 RMK A01 T01770163  RH  096%=      5-min Rain = 0
KRLS 250825Z 12012KT 18/16 A2997 RMK A01 T01770164  RH  096%=      5-min Rain = 0
KRLS 250830Z 12011KT 18/16 A2996 RMK A01 T01770164  RH  096%=      5-min Rain = 0
KRLS 250835Z 12012KT 18/16 A2996 RMK A01 T01780164  RH  096%=      5-min Rain = 0
KRLS 250840Z 12012KT 18/17 A2996 RMK A01 T01780165  RH  097%=      5-min Rain = 0
KRLS 250845Z 12011KT 18/17 A2996 RMK A01 T01780165  RH  097%=      5-min Rain = 0
KRLS 250850Z 12011KT 18/17 A2996 RMK A01 T01790166  RH  097%=      5-min Rain = 0
KRLS 250855Z 12012KT 18/17 A2996 RMK A01 T01790166  RH  097%=      5-min Rain = 0
KRLS 250900Z 12011KT 18/17 A2996 RMK A01 T01790166  RH  097%=      5-min Rain = 0
KRLS 250905Z 13012KT 18/17 A2996 RMK A01 T01800167  RH  097%=      5-min Rain = 0
KRLS 250910Z 13012KT 18/17 A2996 RMK A01 T01810168  RH  097%=      5-min Rain = 0
KRLS 250915Z 13011KT 18/17 A2996 RMK A01 T01810168  RH  097%=      5-min Rain = 0
KRLS 250920Z 13011KT 18/17 A2996 RMK A01 T01820168  RH  097%=      5-min Rain = 0
KRLS 250925Z 13010KT 18/17 A2996 RMK A01 T01820169  RH  097%=      5-min Rain = 0
KRLS 250930Z 13010KT 18/17 A2996 RMK A01 T01830170  RH  097%=      5-min Rain = 0
KRLS 250935Z 13010KT 18/17 A2996 RMK A01 T01840171  RH  097%=      5-min Rain = 0
KRLS 250940Z 13010KT 19/17 A2996 RMK A01 T01850171  RH  096%=      5-min Rain = 0
KRLS 250945Z 13010KT 19/17 A2996 RMK A01 T01860172  RH  096%=      5-min Rain = 0
KRLS 250950Z 14011KT 19/17 A2997 RMK A01 T01870172  RH  096%=      5-min Rain = 0
KRLS 250955Z 14011KT 19/17 A2997 RMK A01 T01870173  RH  096%=      5-min Rain = 0
KRLS 251000Z 14012KT 19/17 A2997 RMK A01 T01880173  RH  096%=      5-min Rain = 0
KRLS 251005Z 14012KT 19/17 A2997 RMK A01 T01890173  RH  095%=      5-min Rain = 0
KRLS 251010Z 14012KT 19/17 A2997 RMK A01 T01890173  RH  095%=      5-min Rain = 0
KRLS 251015Z 14013KT 19/17 A2998 RMK A01 T01910174  RH  094%=      5-min Rain = 0
KRLS 251020Z 14012KT 19/17 A2997 RMK A01 T01920173  RH  094%=      5-min Rain = 0
KRLS 251025Z 14011KT 19/17 A2997 RMK A01 T01910172  RH  093%=      5-min Rain = 0
KRLS 251030Z 14012KT 19/17 A2997 RMK A01 T01910172  RH  093%=      5-min Rain = 0
KRLS 251035Z 14011KT 19/17 A2998 RMK A01 T01910172  RH  093%=      5-min Rain = 0
KRLS 251040Z 14011KT 19/17 A2998 RMK A01 T01910172  RH  093%=      5-min Rain = 0
KRLS 251045Z 14012KT 19/17 A2998 RMK A01 T01910172  RH  093%=      5-min Rain = 0
KRLS 251050Z 14012KT 19/17 A2998 RMK A01 T01910172  RH  094%=      5-min Rain = 0
KRLS 251055Z 14012KT 19/17 A2998 RMK A01 T01910172  RH  093%=      5-min Rain = 0
KRLS 251100Z 14011KT 19/17 A2998 RMK A01 T01900172  RH  093%=      5-min Rain = 0
KRLS 251105Z 14011KT 19/17 A2998 RMK A01 T01900172  RH  094%=      5-min Rain = 0
KRLS 251110Z 14011KT 19/17 A2998 RMK A01 T01900171  RH  094%=      5-min Rain = 0
KRLS 251115Z 14010KT 19/17 A2998 RMK A01 T01890171  RH  094%=      5-min Rain = 0
KRLS 251120Z 14011KT 19/17 A2998 RMK A01 T01900171  RH  094%=      5-min Rain = 0
KRLS 251125Z 14010KT 19/17 A2999 RMK A01 T01890171  RH  094%=      5-min Rain = 0
KRLS 251130Z 14010KT 19/17 A2999 RMK A01 T01890171  RH  094%=      5-min Rain = 0
KRLS 251135Z 14010KT 19/17 A2999 RMK A01 T01890172  RH  094%=      5-min Rain = 0
KRLS 251140Z 14008KT 19/17 A2999 RMK A01 T01890172  RH  094%=      5-min Rain = 0
KRLS 251145Z 14009KT 19/17 A2999 RMK A01 T01900172  RH  094%=      5-min Rain = 0
KRLS 251150Z 14009KT 19/17 A2999 RMK A01 T01900173  RH  094%=      5-min Rain = 0
KRLS 251155Z 14009KT 19/17 A30 RMK A01 T01900173  RH  094%=      5-min Rain = 0
KRLS 251200Z 14010KT 19/17 A30 RMK A01 T01910174  RH  094%=      5-min Rain = 0
KRLS 251205Z 14011KT 19/17 A30 RMK A01 T01910174  RH  094%=      5-min Rain = 0
KRLS 251210Z 14010KT 19/18 A30 RMK A01 T01920175  RH  094%=      5-min Rain = 0
KRLS 251215Z 15010KT 19/18 A30 RMK A01 T01920175  RH  094%=      5-min Rain = 0
KRLS 251220Z 15010KT 19/18 A3001 RMK A01 T01920175  RH  094%=      5-min Rain = 0
KRLS 251225Z 15011KT 19/18 A3001 RMK A01 T01930175  RH  095%=      5-min Rain = 0
KRLS 251230Z 15013G18KT 19/18 A3001 RMK A01 T01930176  RH  095%=      5-min Rain = 0
KRLS 251235Z 15012KT 19/18 A3001 RMK A01 T01930176  RH  094%=      5-min Rain = 0
KRLS 251240Z 15011KT 19/18 A3001 RMK A01 T01930176  RH  094%=      5-min Rain = 0
KRLS 251245Z 15012KT 19/18 A3001 RMK A01 T01930176  RH  094%=      5-min Rain = 0
KRLS 251250Z 15012KT 19/18 A3001 RMK A01 T01930176  RH  095%=      5-min Rain = 0
KRLS 251255Z 15012KT 19/18 A3001 RMK A01 T01930176  RH  095%=      5-min Rain = 0
KRLS 251300Z 15012KT 19/18 A3001 RMK A01 T01940177  RH  095%=      5-min Rain = 0
KRLS 251305Z 15012KT 20/18 A3001 RMK A01 T01950178  RH  095%=      5-min Rain = 0
KRLS 251310Z 15013G18KT 20/18 A3001 RMK A01 T01960179  RH  095%=      5-min Rain = 0
KRLS 251315Z 15013KT 20/18 A3001 RMK A01 T01970179  RH  094%=      5-min Rain = 0
KRLS 251320Z 15013KT 20/18 A3002 RMK A01 T01970179  RH  094%=      5-min Rain = 0
KRLS 251325Z 15013KT 20/18 A3002 RMK A01 T01970179  RH  094%=      5-min Rain = 0
KRLS 251330Z 15013G19KT 20/18 A3002 RMK A01 T01970179  RH  094%=      5-min Rain = 0
KRLS 251335Z 15013G18KT 20/18 A3002 RMK A01 T01980180  RH  094%=      5-min Rain = 0
KRLS 251340Z 15013KT 20/18 A3002 RMK A01 T02000181  RH  094%=      5-min Rain = 0
KRLS 251345Z 15014KT 20/18 A3002 RMK A01 T02000181  RH  094%=      5-min Rain = 0
KRLS 251350Z 15013G18KT 20/18 A3002 RMK A01 T02020183  RH  094%=      5-min Rain = 0
KRLS 251355Z 15013G19KT 20/18 A3002 RMK A01 T02020182  RH  093%=      5-min Rain = 0
KRLS 251400Z 15015KT 20/18 A3002 RMK A01 T02020182  RH  093%=      5-min Rain = 0
KRLS 251405Z 15014KT 20/18 A3002 RMK A01 T02020182  RH  093%=      5-min Rain = 0
KRLS 251410Z 15015KT 20/18 A3002 RMK A01 T02020181  RH  093%=      5-min Rain = 0
KRLS 251415Z 15013KT 20/18 A3003 RMK A01 T02010181  RH  093%=      5-min Rain = 0
KRLS 251420Z 15014KT 20/18 A3003 RMK A01 T02000180  RH  093%=      5-min Rain = 0
KRLS 251425Z 16013KT 20/18 A3003 RMK A01 T02000181  RH  094%=      5-min Rain = 0
KRLS 251430Z 15013KT 20/18 A3003 RMK A01 T02000182  RH  094%=      5-min Rain = 0
KRLS 251435Z 16015KT 20/18 A3003 RMK A01 T02000181  RH  094%=      5-min Rain = 0
KRLS 251440Z 16015KT 20/18 A3003 RMK A01 T02000182  RH  094%=      5-min Rain = 0
KRLS 251445Z 16015KT 20/18 A3003 RMK A01 T02010183  RH  094%=      5-min Rain = 0
KRLS 251450Z 16013KT 20/18 A3003 RMK A01 T02010183  RH  094%=      5-min Rain = 0
KRLS 251455Z 15013KT 20/18 A3003 RMK A01 T02010183  RH  094%=      5-min Rain = 0
KRLS 251500Z 15011KT 20/18 A3003 RMK A01 T02010184  RH  095%=      5-min Rain = 0
KRLS 251505Z 15011KT 20/19 A3004 RMK A01 T02020185  RH  095%=      5-min Rain = 0
KRLS 251510Z 15012KT 20/18 A3004 RMK A01 T02020184  RH  094%=      5-min Rain = 0
KRLS 251515Z 15012KT 20/19 A3004 RMK A01 T02030185  RH  094%=      5-min Rain = 0
KRLS 251520Z 15012KT 20/19 A3004 RMK A01 T02030185  RH  094%=      5-min Rain = 0
KRLS 251525Z 15012KT 20/18 A3003 RMK A01 T02030184  RH  094%=      5-min Rain = 0
KRLS 251530Z 15013KT 20/19 A3003 RMK A01 T02040185  RH  094%=      5-min Rain = 0
KRLS 251535Z 16013KT 20/19 A3003 RMK A01 T02040185  RH  093%=      5-min Rain = 0
KRLS 251540Z 16013KT 21/18 A3003 RMK A01 T02050184  RH  093%=      5-min Rain = 0
KRLS 251545Z 16012KT 21/18 A3004 RMK A01 T02050184  RH  093%=      5-min Rain = 0
KRLS 251550Z 15012KT 21/19 A3003 RMK A01 T02050185  RH  093%=      5-min Rain = 0
KRLS 251555Z 15013KT 21/19 A3003 RMK A01 T02060185  RH  093%=      5-min Rain = 0
KRLS 251600Z 15012KT 21/19 A3003 RMK A01 T02070186  RH  093%=      5-min Rain = 0
KRLS 251605Z 16012KT 21/19 A3003 RMK A01 T02080186  RH  092%=      5-min Rain = 0
KRLS 251610Z 15013KT 21/19 A3003 RMK A01 T02080186  RH  092%=      5-min Rain = 0
KRLS 251615Z 15013KT 21/19 A3003 RMK A01 T02080186  RH  092%=      5-min Rain = 0
KRLS 251620Z 15012KT 21/19 A3004 RMK A01 T02100187  RH  092%=      5-min Rain = 0
KRLS 251625Z 16013KT 21/19 A3004 RMK A01 T02090186  RH  092%=      5-min Rain = 0
KRLS 251630Z 15014KT 21/19 A3004 RMK A01 T02080186  RH  092%=      5-min Rain = 0
KRLS 251635Z 15012G17KT 21/19 A3004 RMK A01 T02070187  RH  093%=      5-min Rain = 0
KRLS 251640Z 16012KT 21/19 A3004 RMK A01 T02080187  RH  093%=      5-min Rain = 0
KRLS 251645Z 16013KT 21/19 A3004 RMK A01 T02080188  RH  093%=      5-min Rain = 0
KRLS 251650Z 15012KT 21/19 A3004 RMK A01 T02070187  RH  094%=      5-min Rain = 0
KRLS 251655Z 15012KT 21/19 A3004 RMK A01 T02060188  RH  094%=      5-min Rain = 0
KRLS 251700Z 15012KT 21/19 A3004 RMK A01 T02060188  RH  094%=      5-min Rain = 0
KRLS 251705Z 15012KT 21/19 A3004 RMK A01 T02060188  RH  094%=      5-min Rain = 0
KRLS 251710Z 16009KT 21/19 A3004 RMK A01 T02080189  RH  094%=      5-min Rain = 0
KRLS 251715Z 15011KT 21/19 A3004 RMK A01 T02080189  RH  094%=      5-min Rain = 0
KRLS 251720Z 16011KT 21/19 A3003 RMK A01 T02090189  RH  093%=      5-min Rain = 0
KRLS 251725Z 15011KT 21/19 A3003 RMK A01 T02100189  RH  093%=      5-min Rain = 0
KRLS 251730Z 15010KT 21/19 A3003 RMK A01 T02100189  RH  092%=      5-min Rain = 0
KRLS 251735Z 16010KT 21/19 A3003 RMK A01 T02100188  RH  092%=      5-min Rain = 0
KRLS 251740Z 16011KT 21/19 A3003 RMK A01 T02100187  RH  092%=      5-min Rain = 0
KRLS 251745Z 16010KT 21/19 A3003 RMK A01 T02110188  RH  091%=      5-min Rain = 0
KRLS 251750Z 16011KT 21/19 A3003 RMK A01 T02110188  RH  091%=      5-min Rain = 0
KRLS 251755Z 16011KT 21/19 A3003 RMK A01 T02120188  RH  091%=      5-min Rain = 0
KRLS 251800Z 16012G17KT 21/19 A3003 RMK A01 T02110188  RH  091%=      5-min Rain = 0
KRLS 251805Z 16013G19KT 21/19 A3003 RMK A01 T02130188  RH  091%=      5-min Rain = 0
KRLS 251810Z 16013G18KT 21/19 A3003 RMK A01 T02130187  RH  090%=      5-min Rain = 0
KRLS 251815Z 17011KT 21/19 A3003 RMK A01 T02130187  RH  090%=      5-min Rain = 0
KRLS 251820Z 16012KT 21/19 A3002 RMK A01 T02140188  RH  089%=      5-min Rain = 0
KRLS 251825Z 16012KT 22/19 A3002 RMK A01 T02160188  RH  089%=      5-min Rain = 0
KRLS 251830Z 16012KT 22/19 A3002 RMK A01 T02170188  RH  089%=      5-min Rain = 0
KRLS 251835Z 16010KT 22/19 A3002 RMK A01 T02170190  RH  089%=      5-min Rain = 0
KRLS 251840Z 16012G17KT 22/19 A3001 RMK A01 T02160188  RH  089%=      5-min Rain = 0
KRLS 251845Z 16014KT 22/19 A3001 RMK A01 T02160187  RH  088%=      5-min Rain = 0
KRLS 251850Z 15013KT 22/19 A3001 RMK A01 T02170187  RH  088%=      5-min Rain = 0
KRLS 251855Z 15011KT 22/19 A3001 RMK A01 T02170188  RH  088%=      5-min Rain = 0
KRLS 251900Z 15012KT 22/19 A30 RMK A01 T02170188  RH  088%=      5-min Rain = 0
KRLS 251905Z 15012KT 22/19 A30 RMK A01 T02180188  RH  088%=      5-min Rain = 0
KRLS 251910Z 15012KT 22/19 A30 RMK A01 T02190189  RH  088%=      5-min Rain = 0
KRLS 251915Z 15015KT 22/19 A30 RMK A01 T02200188  RH  087%=      5-min Rain = 0
KRLS 251920Z 15016KT 22/19 A2999 RMK A01 T02220189  RH  086%=      5-min Rain = 0
KRLS 251925Z 15015KT 23/19 A2998 RMK A01 T02280192  RH  085%=      5-min Rain = 0
KRLS 251930Z 15016KT 23/19 A2998 RMK A01 T02310194  RH  084%=      5-min Rain = 0
KRLS 251935Z 15016KT 23/19 A2998 RMK A01 T02330193  RH  083%=      5-min Rain = 0
KRLS 251940Z 15017G22KT 23/19 A2998 RMK A01 T02300191  RH  083%=      5-min Rain = 0
KRLS 251945Z 15016KT 23/19 A2998 RMK A01 T02280190  RH  084%=      5-min Rain = 0
KRLS 251950Z 16015KT 23/19 A2998 RMK A01 T02280190  RH  084%=      5-min Rain = 0
KRLS 251955Z 15015G20KT 23/19 A2998 RMK A01 T02330193  RH  083%=      5-min Rain = 0
KRLS 252000Z 15016KT 23/19 A2998 RMK A01 T02330192  RH  082%=      5-min Rain = 0
KRLS 252005Z 15015KT 24/19 A2998 RMK A01 T02350193  RH  082%=      5-min Rain = 0
KRLS 252010Z 15017KT 24/19 A2998 RMK A01 T02350193  RH  082%=      5-min Rain = 0
KRLS 252015Z 15016KT 23/19 A2998 RMK A01 T02340193  RH  082%=      5-min Rain = 0
KRLS 252020Z 15017KT 23/19 A2998 RMK A01 T02330192  RH  082%=      5-min Rain = 0
KRLS 252025Z 15016KT 23/19 A2997 RMK A01 T02310194  RH  084%=      5-min Rain = 0
KRLS 252030Z 14016KT 23/19 A2997 RMK A01 T02330194  RH  083%=      5-min Rain = 0
KRLS 252035Z 14016KT 24/20 A2997 RMK A01 T02380197  RH  082%=      5-min Rain = 0
KRLS 252040Z 14016KT 24/20 A2997 RMK A01 T02380198  RH  083%=      5-min Rain = 0
KRLS 252045Z 14015G20KT 24/20 A2997 RMK A01 T02390199  RH  083%=      5-min Rain = 0
KRLS 252050Z 14015KT 24/20 A2997 RMK A01 T02360196  RH  083%=      5-min Rain = 0
KRLS 252055Z 14015G20KT 24/20 A2997 RMK A01 T02410199  RH  082%=      5-min Rain = 0
KRLS 252100Z 13016KT 24/20 A2997 RMK A01 T02390196  RH  082%=      5-min Rain = 0
KRLS 252105Z 14014G19KT 24/20 A2997 RMK A01 T02350195  RH  083%=      5-min Rain = 0
KRLS 252110Z 14016G21KT 24/20 A2996 RMK A01 T02360196  RH  083%=      5-min Rain = 0
KRLS 252115Z 14017KT 24/20 A2996 RMK A01 T02390196  RH  081%=      5-min Rain = 0
KRLS 252120Z 14016KT 24/20 A2995 RMK A01 T02410196  RH  081%=      5-min Rain = 0
KRLS 252125Z 14017G22KT 24/20 A2995 RMK A01 T02400195  RH  080%=      5-min Rain = 0
KRLS 252130Z 14018KT 24/19 A2995 RMK A01 T02400193  RH  080%=      5-min Rain = 0
KRLS 252135Z 14016G21KT 24/20 A2995 RMK A01 T02410195  RH  080%=      5-min Rain = 0
KRLS 252140Z 14016G21KT 24/19 A2994 RMK A01 T02410194  RH  079%=      5-min Rain = 0
KRLS 252145Z 14016G21KT 25/20 A2994 RMK A01 T02470197  RH  078%=      5-min Rain = 0
KRLS 252150Z 15018G23KT 25/20 A2993 RMK A01 T02510197  RH  076%=      5-min Rain = 0
KRLS 252155Z 15017G23KT 25/20 A2994 RMK A01 T02470195  RH  077%=      5-min Rain = 0
KRLS 252200Z 15018G24KT 25/19 A2994 RMK A01 T02480194  RH  076%=      5-min Rain = 0
KRLS 252205Z 15017G22KT 25/20 A2994 RMK A01 T02540197  RH  075%=      5-min Rain = 0
KRLS 252210Z 14018KT 26/20 A2993 RMK A01 T02550196  RH  074%=      5-min Rain = 0
KRLS 252215Z 14014KT 25/20 A2992 RMK A01 T02500196  RH  076%=      5-min Rain = 0
KRLS 252220Z 14018KT 25/20 A2992 RMK A01 T02480195  RH  077%=      5-min Rain = 0
KRLS 252225Z 14017G22KT 25/20 A2993 RMK A01 T02460195  RH  077%=      5-min Rain = 0
KRLS 252230Z 15018KT 24/19 A2993 RMK A01 T02440194  RH  078%=      5-min Rain = 0
KRLS 252235Z 15019KT 24/19 A2994 RMK A01 T02430192  RH  077%=      5-min Rain = 0.01
KRLS 252240Z 14016KT 24/19 A2992 RMK A01 T02410192  RH  078%=      5-min Rain = 0
KRLS 252245Z 14014G19KT 24/19 A299 RMK A01 T02390192  RH  079%=      5-min Rain = 0
KRLS 252250Z 14017G23KT 24/19 A299 RMK A01 T02380191  RH  079%=      5-min Rain = 0
KRLS 252255Z 14016KT 24/19 A2991 RMK A01 T02380191  RH  079%=      5-min Rain = 0
KRLS 252300Z 14016KT 24/19 A299 RMK A01 T02380191  RH  079%=      5-min Rain = 0
KRLS 252305Z 15017G22KT 24/19 A2991 RMK A01 T02390191  RH  079%=      5-min Rain = 0
KRLS 252310Z 15018G23KT 24/19 A2992 RMK A01 T02390190  RH  078%=      5-min Rain = 0
KRLS 252315Z 15017KT 24/19 A2992 RMK A01 T02390189  RH  078%=      5-min Rain = 0
KRLS 252320Z 15015KT 24/19 A2993 RMK A01 T02390189  RH  078%=      5-min Rain = 0
KRLS 252325Z 16015G20KT 24/19 A2994 RMK A01 T02390189  RH  078%=      5-min Rain = 0
KRLS 252330Z 16016KT 24/19 A2994 RMK A01 T02400188  RH  077%=      5-min Rain = 0
KRLS 252335Z 16015KT 24/19 A2994 RMK A01 T02400188  RH  077%=      5-min Rain = 0
KRLS 252340Z 16013KT 24/19 A2994 RMK A01 T02400188  RH  077%=      5-min Rain = 0
KRLS 252345Z 15012KT 24/19 A2994 RMK A01 T02400188  RH  077%=      5-min Rain = 0
KRLS 252350Z 15010KT 24/19 A2994 RMK A01 T02410190  RH  077%=      5-min Rain = 0
KRLS 252355Z 15012KT 25/19 A2994 RMK A01 T02470191  RH  075%=      5-min Rain = 0
KRLS 260000Z 16013KT 25/19 A2994 RMK A01 T02510192  RH  074%=      5-min Rain = 0
KRLS 260005Z 16013KT 25/19 A2994 RMK A01 T02530191  RH  073%=      5-min Rain = 0
KRLS 260010Z 15013KT 25/19 A2994 RMK A01 T02510191  RH  073%=      5-min Rain = 0
KRLS 260015Z 15013KT 25/19 A2994 RMK A01 T02510191  RH  073%=      5-min Rain = 0
KRLS 260020Z 16011KT 25/19 A2994 RMK A01 T02520193  RH  074%=      5-min Rain = 0
KRLS 260025Z 17013G18KT 25/19 A2995 RMK A01 T02530190  RH  072%=      5-min Rain = 0
KRLS 260030Z 17009KT 25/19 A2995 RMK A01 T02530189  RH  072%=      5-min Rain = 0
KRLS 260035Z 17013G18KT 25/19 A2995 RMK A01 T02520186  RH  070%=      5-min Rain = 0
KRLS 260040Z 17015G20KT 25/18 A2995 RMK A01 T02510183  RH  070%=      5-min Rain = 0
KRLS 260045Z 17014KT 25/18 A2995 RMK A01 T02500183  RH  070%=      5-min Rain = 0
KRLS 260050Z 17013KT 25/18 A2995 RMK A01 T02480183  RH  071%=      5-min Rain = 0
KRLS 260055Z 17014KT 25/18 A2995 RMK A01 T02470181  RH  070%=      5-min Rain = 0
KRLS 260100Z 17014KT 25/18 A2995 RMK A01 T02460180  RH  070%=      5-min Rain = 0
KRLS 260105Z 17014G20KT 25/18 A2995 RMK A01 T02450179  RH  070%=      5-min Rain = 0
KRLS 260110Z 17015KT 24/18 A2995 RMK A01 T02430180  RH  071%=      5-min Rain = 0
KRLS 260115Z 16013KT 24/18 A2996 RMK A01 T02410180  RH  072%=      5-min Rain = 0
KRLS 260120Z 16012KT 24/18 A2995 RMK A01 T02390180  RH  073%=      5-min Rain = 0
KRLS 260125Z 16012KT 24/18 A2995 RMK A01 T02370180  RH  074%=      5-min Rain = 0
KRLS 260130Z 16012KT 24/18 A2995 RMK A01 T02350180  RH  075%=      5-min Rain = 0
KRLS 260135Z 16012KT 23/18 A2995 RMK A01 T02330180  RH  076%=      5-min Rain = 0
KRLS 260140Z 16012KT 23/18 A2996 RMK A01 T02320180  RH  076%=      5-min Rain = 0
KRLS 260145Z 15011KT 23/18 A2996 RMK A01 T02300180  RH  078%=      5-min Rain = 0
KRLS 260150Z 15013KT 23/18 A2995 RMK A01 T02290180  RH  078%=      5-min Rain = 0
KRLS 260155Z 15014KT 23/18 A2995 RMK A01 T02300179  RH  077%=      5-min Rain = 0
KRLS 260200Z 15013KT 23/18 A2995 RMK A01 T02290179  RH  077%=      5-min Rain = 0
KRLS 260205Z 15011KT 23/18 A2996 RMK A01 T02270179  RH  078%=      5-min Rain = 0
KRLS 260210Z 16011KT 23/18 A2996 RMK A01 T02260179  RH  079%=      5-min Rain = 0
KRLS 260215Z 16011KT 23/18 A2996 RMK A01 T02250178  RH  079%=      5-min Rain = 0
KRLS 260220Z 16010KT 22/18 A2996 RMK A01 T02230178  RH  079%=      5-min Rain = 0
KRLS 260225Z 16010KT 22/18 A2997 RMK A01 T02220177  RH  080%=      5-min Rain = 0
KRLS 260230Z 16011KT 22/18 A2997 RMK A01 T02230178  RH  079%=      5-min Rain = 0
KRLS 260235Z 16011KT 22/18 A2997 RMK A01 T02240177  RH  079%=      5-min Rain = 0
KRLS 260240Z 16011KT 22/18 A2997 RMK A01 T02220177  RH  080%=      5-min Rain = 0
KRLS 260245Z 16010KT 22/18 A2997 RMK A01 T02200177  RH  080%=      5-min Rain = 0
KRLS 260250Z 16009KT 22/18 A2997 RMK A01 T02190177  RH  081%=      5-min Rain = 0
KRLS 260255Z 16008KT 22/18 A2997 RMK A01 T02180176  RH  081%=      5-min Rain = 0
KRLS 260300Z 16007KT 22/18 A2997 RMK A01 T02170176  RH  082%=      5-min Rain = 0
KRLS 260305Z 16007KT 22/18 A2997 RMK A01 T02150176  RH  082%=      5-min Rain = 0
KRLS 260310Z 15008KT 22/18 A2997 RMK A01 T02150176  RH  083%=      5-min Rain = 0
KRLS 260315Z 16008KT 22/18 A2996 RMK A01 T02150176  RH  083%=      5-min Rain = 0
KRLS 260320Z 15007KT 21/18 A2996 RMK A01 T02120176  RH  084%=      5-min Rain = 0
KRLS 260325Z 15007KT 21/18 A2996 RMK A01 T02110176  RH  085%=      5-min Rain = 0
KRLS 260330Z 15008KT 21/18 A2996 RMK A01 T02100176  RH  085%=      5-min Rain = 0
KRLS 260335Z 15008KT 21/18 A2996 RMK A01 T02100175  RH  085%=      5-min Rain = 0
KRLS 260340Z 16008KT 21/18 A2996 RMK A01 T02100175  RH  085%=      5-min Rain = 0
KRLS 260345Z 16007KT 21/17 A2996 RMK A01 T02080174  RH  085%=      5-min Rain = 0
KRLS 260350Z 16007KT 21/17 A2996 RMK A01 T02060173  RH  086%=      5-min Rain = 0
KRLS 260355Z 16007KT 21/17 A2996 RMK A01 T02060173  RH  086%=      5-min Rain = 0
KRLS 260400Z 16007KT 21/17 A2996 RMK A01 T02050173  RH  086%=      5-min Rain = 0
KRLS 260405Z 16006KT 21/17 A2996 RMK A01 T02050172  RH  086%=      5-min Rain = 0
KRLS 260410Z 15006KT 20/17 A2996 RMK A01 T02040172  RH  086%=      5-min Rain = 0
KRLS 260415Z 16006KT 20/17 A2996 RMK A01 T02040172  RH  086%=      5-min Rain = 0
KRLS 260420Z 16007KT 20/17 A2996 RMK A01 T02040172  RH  086%=      5-min Rain = 0
KRLS 260425Z 16007KT 20/17 A2997 RMK A01 T02020170  RH  086%=      5-min Rain = 0
KRLS 260430Z 16006KT 20/17 A2997 RMK A01 T01990170  RH  087%=      5-min Rain = 0
KRLS 260435Z 17006KT 20/17 A2997 RMK A01 T01970168  RH  087%=      5-min Rain = 0
KRLS 260440Z 17006KT 20/17 A2997 RMK A01 T01960168  RH  088%=      5-min Rain = 0
KRLS 260445Z 17008KT 20/17 A2997 RMK A01 T02000171  RH  088%=      5-min Rain = 0
KRLS 260450Z 17007KT 20/17 A2997 RMK A01 T02030171  RH  086%=      5-min Rain = 0
KRLS 260455Z 16008KT 20/17 A2997 RMK A01 T02030171  RH  086%=      5-min Rain = 0

Page generated in 0.0095 seconds.